Time;durP1;ratioP1;P1;durP2;ratioP2;P2;SDS_P1;SDS_P2;PMS_P1;PMS_P2;Temp;Humidity;BMP_temperature;BMP_pressure;BME280_temperature;BME280_humidity;BME280_pressure;Samples;Min_cycle;Max_cycle;Signal;HPM_P1;HPM_P2
2024/01/19 00:00:38;;;;;;;38.30;21.20;;;;;;;;;;5054463;28;20474;-57
2024/01/19 00:03:04;;;;;;;33.03;19.33;;;;;;;;;;5054125;28;20025;-57
2024/01/19 00:05:30;;;;;;;29.97;19.90;;;;;;;;;;5053662;28;20071;-58
2024/01/19 00:07:56;;;;;;;24.80;20.17;;;;;;;;;;5054394;28;20029;-57
2024/01/19 00:10:22;;;;;;;29.53;21.93;;;;;;;;;;5054218;28;20032;-60
2024/01/19 00:12:48;;;;;;;34.43;22.20;;;;;;;;;;5054276;28;20021;-57
2024/01/19 00:15:14;;;;;;;30.53;19.83;;;;;;;;;;5053639;28;20119;-58
2024/01/19 00:17:40;;;;;;;25.57;20.07;;;;;;;;;;5054511;28;20037;-57
2024/01/19 00:20:10;;;;;;;27.57;18.77;;;;;;;;;;5054120;28;20029;-57
2024/01/19 00:22:36;;;;;;;27.00;20.23;;;;;;;;;;5053878;28;20025;-57
2024/01/19 00:25:02;;;;;;;31.23;19.07;;;;;;;;;;5053887;28;20049;-58
2024/01/19 00:27:29;;;;;;;30.47;19.93;;;;;;;;;;5053830;28;20031;-57
2024/01/19 00:29:55;;;;;;;33.60;19.90;;;;;;;;;;5052838;28;20033;-58
2024/01/19 00:32:21;;;;;;;27.30;19.33;;;;;;;;;;5054286;28;20108;-58
2024/01/19 00:34:47;;;;;;;23.73;18.97;;;;;;;;;;5053735;28;20370;-58
2024/01/19 00:37:14;;;;;;;32.23;20.00;;;;;;;;;;5053926;28;20021;-58
2024/01/19 00:39:40;;;;;;;29.27;19.40;;;;;;;;;;5053874;28;20083;-57
2024/01/19 00:42:06;;;;;;;23.37;20.23;;;;;;;;;;5053663;28;20025;-57
2024/01/19 00:44:33;;;;;;;25.43;19.47;;;;;;;;;;5053892;28;20051;-56
2024/01/19 00:46:58;;;;;;;26.27;19.60;;;;;;;;;;5053833;28;20040;-57
2024/01/19 00:49:24;;;;;;;23.77;18.23;;;;;;;;;;5054142;28;20371;-58
2024/01/19 00:51:51;;;;;;;23.10;17.60;;;;;;;;;;5053966;28;20461;-57
2024/01/19 00:54:17;;;;;;;32.13;18.47;;;;;;;;;;5053344;28;20064;-57
2024/01/19 00:56:43;;;;;;;25.73;17.27;;;;;;;;;;5054058;28;20025;-58
2024/01/19 00:59:08;;;;;;;28.17;19.30;;;;;;;;;;5053924;28;20032;-57
2024/01/19 01:01:35;;;;;;;23.63;19.53;;;;;;;;;;5053347;28;20040;-57
2024/01/19 01:04:02;;;;;;;23.30;18.77;;;;;;;;;;5053429;28;20032;-57
2024/01/19 01:06:28;;;;;;;26.33;19.17;;;;;;;;;;5053622;28;20027;-58
2024/01/19 01:08:54;;;;;;;24.83;18.60;;;;;;;;;;5053173;28;20073;-58
2024/01/19 01:11:23;;;;;;;22.60;18.33;;;;;;;;;;5053264;28;20044;-58
2024/01/19 01:13:49;;;;;;;23.57;17.93;;;;;;;;;;5053825;28;20032;-58
2024/01/19 01:16:15;;;;;;;25.00;19.07;;;;;;;;;;5053301;28;20451;-57
2024/01/19 01:18:41;;;;;;;28.10;18.70;;;;;;;;;;5052966;28;20056;-57
2024/01/19 01:21:07;;;;;;;28.63;18.57;;;;;;;;;;5053301;28;20099;-57
2024/01/19 01:23:33;;;;;;;20.80;16.77;;;;;;;;;;5053753;28;20021;-58
2024/01/19 01:25:59;;;;;;;26.37;16.97;;;;;;;;;;5053171;28;20036;-58
2024/01/19 01:28:25;;;;;;;26.67;18.23;;;;;;;;;;5053766;28;20029;-58
2024/01/19 01:30:51;;;;;;;30.97;19.03;;;;;;;;;;5053175;28;20375;-58
2024/01/19 01:33:17;;;;;;;24.80;17.33;;;;;;;;;;5053751;28;20075;-57
2024/01/19 01:35:43;;;;;;;27.50;18.17;;;;;;;;;;5053160;28;20025;-58
2024/01/19 01:38:09;;;;;;;29.73;20.27;;;;;;;;;;5053351;28;20029;-58
2024/01/19 01:40:35;;;;;;;33.87;18.93;;;;;;;;;;5054519;28;20063;-58
2024/01/19 01:43:02;;;;;;;29.23;18.97;;;;;;;;;;5056440;28;20032;-57
2024/01/19 01:45:28;;;;;;;25.83;18.13;;;;;;;;;;5056951;28;20112;-58
2024/01/19 01:47:54;;;;;;;23.83;19.73;;;;;;;;;;5057299;28;20426;-57
2024/01/19 01:50:20;;;;;;;29.37;18.67;;;;;;;;;;5056673;28;20026;-56
2024/01/19 01:52:46;;;;;;;20.43;17.47;;;;;;;;;;5057091;28;20060;-58
2024/01/19 01:55:13;;;;;;;25.90;19.27;;;;;;;;;;5056768;28;20367;-57
2024/01/19 01:57:39;;;;;;;21.87;17.07;;;;;;;;;;5056994;28;20075;-58
2024/01/19 02:00:08;;;;;;;23.27;18.50;;;;;;;;;;5056696;28;20036;-57
2024/01/19 02:02:33;;;;;;;25.83;18.27;;;;;;;;;;5056398;28;20205;-56
2024/01/19 02:04:59;;;;;;;28.20;21.97;;;;;;;;;;5056309;28;20029;-57
2024/01/19 02:07:25;;;;;;;25.13;17.60;;;;;;;;;;5056320;28;20352;-57
2024/01/19 02:09:51;;;;;;;28.07;18.87;;;;;;;;;;5056727;28;20025;-57
2024/01/19 02:12:17;;;;;;;27.20;18.13;;;;;;;;;;5056947;28;20021;-58
2024/01/19 02:14:43;;;;;;;30.97;17.27;;;;;;;;;;5056680;28;20056;-57
2024/01/19 02:17:09;;;;;;;24.87;20.53;;;;;;;;;;5056083;28;20482;-58
2024/01/19 02:19:35;;;;;;;29.03;21.47;;;;;;;;;;5056072;28;20036;-58
2024/01/19 02:22:02;;;;;;;26.93;18.87;;;;;;;;;;5055688;28;20482;-57
2024/01/19 02:24:29;;;;;;;26.77;19.40;;;;;;;;;;5056536;28;20398;-58
2024/01/19 02:26:56;;;;;;;24.50;19.40;;;;;;;;;;5056115;28;20036;-57
2024/01/19 02:29:22;;;;;;;25.10;19.83;;;;;;;;;;5056541;28;20402;-56
2024/01/19 02:31:48;;;;;;;26.27;18.77;;;;;;;;;;5055782;28;20024;-57
2024/01/19 02:34:14;;;;;;;30.27;19.23;;;;;;;;;;5055745;28;20035;-58
2024/01/19 02:36:40;;;;;;;23.93;18.80;;;;;;;;;;5055402;28;20108;-57
2024/01/19 02:39:06;;;;;;;26.63;19.07;;;;;;;;;;5055954;28;20116;-57
2024/01/19 02:41:32;;;;;;;28.03;20.23;;;;;;;;;;5055681;28;20024;-58
2024/01/19 02:43:59;;;;;;;24.23;18.93;;;;;;;;;;5055615;28;20063;-58
2024/01/19 02:46:24;;;;;;;28.07;20.17;;;;;;;;;;5055555;28;20493;-58
2024/01/19 02:48:50;;;;;;;25.07;18.17;;;;;;;;;;5055917;28;20033;-58
2024/01/19 02:51:16;;;;;;;29.60;19.90;;;;;;;;;;5054627;28;20051;-57
2024/01/19 02:53:42;;;;;;;20.83;18.37;;;;;;;;;;5055028;28;20474;-57
2024/01/19 02:56:08;;;;;;;32.03;17.67;;;;;;;;;;5054857;28;20136;-57
2024/01/19 02:58:35;;;;;;;31.00;19.77;;;;;;;;;;5055834;28;20124;-58
2024/01/19 03:01:01;;;;;;;26.07;20.27;;;;;;;;;;5055264;28;20029;-57
2024/01/19 03:03:27;;;;;;;34.20;20.73;;;;;;;;;;5055206;28;20021;-57
2024/01/19 03:05:53;;;;;;;28.60;20.47;;;;;;;;;;5054863;28;20379;-57
2024/01/19 03:08:21;;;;;;;31.43;19.53;;;;;;;;;;5055686;28;20025;-57
2024/01/19 03:10:47;;;;;;;29.17;18.80;;;;;;;;;;5054991;28;20025;-57
2024/01/19 03:13:13;;;;;;;31.07;22.43;;;;;;;;;;5055576;28;20021;-57
2024/01/19 03:15:39;;;;;;;30.23;18.60;;;;;;;;;;5055017;28;20029;-58
2024/01/19 03:18:08;;;;;;;26.87;19.50;;;;;;;;;;5055421;28;20025;-58
2024/01/19 03:20:34;;;;;;;27.07;19.50;;;;;;;;;;5054912;28;20492;-58
2024/01/19 03:23:00;;;;;;;26.83;21.83;;;;;;;;;;5054914;28;20092;-58
2024/01/19 03:25:26;;;;;;;24.33;19.33;;;;;;;;;;5054779;28;20108;-59
2024/01/19 03:27:52;;;;;;;27.13;18.27;;;;;;;;;;5055324;28;20043;-57
2024/01/19 03:30:18;;;;;;;23.93;18.03;;;;;;;;;;5055038;28;20045;-57
2024/01/19 03:32:44;;;;;;;20.47;16.47;;;;;;;;;;5054694;28;20467;-57
2024/01/19 03:35:10;;;;;;;29.43;18.17;;;;;;;;;;5054649;28;20170;-58
2024/01/19 03:37:36;;;;;;;32.83;17.77;;;;;;;;;;5054667;28;20377;-57
2024/01/19 03:40:05;;;;;;;21.23;18.47;;;;;;;;;;5054813;28;20474;-57
2024/01/19 03:42:31;;;;;;;26.15;18.58;;;;;;;;;;5055063;28;20041;-57
2024/01/19 03:44:57;;;;;;;26.00;20.13;;;;;;;;;;5054450;28;20021;-57
2024/01/19 03:47:23;;;;;;;20.30;18.07;;;;;;;;;;5054453;28;20028;-57
2024/01/19 03:49:49;;;;;;;25.27;20.00;;;;;;;;;;5054370;28;20348;-58
2024/01/19 03:52:16;;;;;;;25.43;17.73;;;;;;;;;;5054862;28;20108;-57
2024/01/19 03:54:42;;;;;;;28.10;18.13;;;;;;;;;;5054017;28;20079;-57
2024/01/19 03:57:08;;;;;;;20.90;16.50;;;;;;;;;;5054268;28;20057;-57
2024/01/19 03:59:34;;;;;;;20.20;17.10;;;;;;;;;;5054138;28;20060;-57
2024/01/19 04:02:00;;;;;;;20.03;16.37;;;;;;;;;;5053426;28;20033;-57
2024/01/19 04:04:26;;;;;;;21.03;18.03;;;;;;;;;;5053944;28;20036;-58
2024/01/19 04:06:52;;;;;;;21.03;17.70;;;;;;;;;;5054032;28;20028;-57
2024/01/19 04:09:19;;;;;;;24.13;17.70;;;;;;;;;;5054356;28;20079;-57
2024/01/19 04:11:45;;;;;;;27.40;18.73;;;;;;;;;;5054232;28;20047;-57
2024/01/19 04:14:11;;;;;;;23.57;16.00;;;;;;;;;;5053984;28;20025;-58
2024/01/19 04:16:38;;;;;;;23.23;18.20;;;;;;;;;;5054245;28;20036;-59
2024/01/19 04:19:04;;;;;;;24.97;19.03;;;;;;;;;;5054499;28;20110;-57
2024/01/19 04:21:30;;;;;;;26.13;18.53;;;;;;;;;;5054225;28;20037;-57
2024/01/19 04:23:56;;;;;;;26.33;17.03;;;;;;;;;;5053910;28;20033;-58
2024/01/19 04:26:22;;;;;;;24.70;18.53;;;;;;;;;;5053831;28;20029;-57
2024/01/19 04:28:48;;;;;;;26.90;18.27;;;;;;;;;;5053666;28;20087;-59
2024/01/19 04:31:14;;;;;;;25.43;16.37;;;;;;;;;;5054126;28;20040;-59
2024/01/19 04:33:40;;;;;;;25.47;18.30;;;;;;;;;;5053284;28;20029;-59
2024/01/19 04:36:07;;;;;;;25.30;18.83;;;;;;;;;;5054200;28;20071;-57
2024/01/19 04:38:32;;;;;;;25.53;19.23;;;;;;;;;;5053940;28;20447;-57
2024/01/19 04:40:58;;;;;;;23.23;18.90;;;;;;;;;;5053887;28;20040;-56
2024/01/19 04:43:24;;;;;;;32.13;16.90;;;;;;;;;;5053793;28;20029;-59
2024/01/19 04:45:50;;;;;;;27.53;19.50;;;;;;;;;;5053595;28;20116;-59
2024/01/19 04:48:16;;;;;;;22.40;17.07;;;;;;;;;;5054410;28;20094;-56
2024/01/19 04:50:42;;;;;;;29.97;18.53;;;;;;;;;;5054068;28;20107;-57
2024/01/19 04:53:08;;;;;;;19.07;15.10;;;;;;;;;;5053440;28;20483;-57
2024/01/19 04:55:35;;;;;;;21.20;17.37;;;;;;;;;;5054166;28;20459;-57
2024/01/19 04:58:01;;;;;;;27.20;18.60;;;;;;;;;;5053926;28;20139;-59
2024/01/19 05:00:27;;;;;;;24.20;18.43;;;;;;;;;;5054261;28;20132;-59
2024/01/19 05:02:53;;;;;;;22.47;18.03;;;;;;;;;;5054113;28;20145;-59
2024/01/19 05:05:19;;;;;;;24.27;18.27;;;;;;;;;;5053539;28;20478;-59
2024/01/19 05:07:45;;;;;;;31.73;17.23;;;;;;;;;;5053812;28;20101;-57
2024/01/19 05:10:11;;;;;;;21.27;16.63;;;;;;;;;;5053309;28;20028;-58
2024/01/19 05:12:37;;;;;;;25.10;18.27;;;;;;;;;;5053421;28;20032;-57
2024/01/19 05:15:03;;;;;;;21.17;16.37;;;;;;;;;;5053914;28;20029;-57
2024/01/19 05:17:29;;;;;;;25.27;17.53;;;;;;;;;;5057905;28;20029;-56
2024/01/19 05:19:55;;;;;;;23.33;18.40;;;;;;;;;;5056946;28;20378;-57
2024/01/19 05:22:21;;;;;;;22.23;18.20;;;;;;;;;;5057264;28;20108;-57
2024/01/19 05:24:47;;;;;;;23.83;15.80;;;;;;;;;;5057809;28;20489;-58
2024/01/19 05:27:14;;;;;;;21.33;16.43;;;;;;;;;;5057891;28;20079;-57
2024/01/19 05:29:41;;;;;;;24.27;17.27;;;;;;;;;;5057443;28;20029;-55
2024/01/19 05:32:07;;;;;;;23.83;18.57;;;;;;;;;;5057014;28;20033;-57
2024/01/19 05:34:33;;;;;;;22.87;17.43;;;;;;;;;;5057595;28;20071;-56
2024/01/19 05:36:58;;;;;;;23.70;18.17;;;;;;;;;;5056834;28;20374;-58
2024/01/19 05:39:27;;;;;;;23.80;17.73;;;;;;;;;;5057221;28;20029;-60
2024/01/19 05:41:53;;;;;;;22.73;16.97;;;;;;;;;;5056826;28;20037;-58
2024/01/19 05:44:19;;;;;;;25.00;18.23;;;;;;;;;;5057066;28;20376;-58
2024/01/19 05:46:45;;;;;;;25.77;17.50;;;;;;;;;;5056792;28;20021;-59
2024/01/19 05:49:11;;;;;;;27.37;17.77;;;;;;;;;;5056721;28;20120;-59
2024/01/19 05:51:37;;;;;;;27.40;17.53;;;;;;;;;;5056642;28;20074;-59
2024/01/19 05:54:03;;;;;;;25.13;17.83;;;;;;;;;;5056017;28;20032;-59
2024/01/19 05:56:29;;;;;;;29.50;17.57;;;;;;;;;;5056454;28;20032;-59
2024/01/19 05:58:55;;;;;;;20.43;16.03;;;;;;;;;;5056496;28;20402;-58
2024/01/19 06:01:21;;;;;;;24.13;19.77;;;;;;;;;;5056495;28;20029;-58
2024/01/19 06:03:47;;;;;;;37.80;21.30;;;;;;;;;;5056188;28;20044;-59
2024/01/19 06:06:13;;;;;;;25.70;20.13;;;;;;;;;;5056676;28;20020;-59
2024/01/19 06:08:39;;;;;;;22.47;18.73;;;;;;;;;;5056899;28;20029;-59
2024/01/19 06:11:05;;;;;;;30.10;20.23;;;;;;;;;;5056040;28;20036;-59
2024/01/19 06:13:31;;;;;;;27.07;19.87;;;;;;;;;;5055812;28;20031;-59
2024/01/19 06:15:57;;;;;;;27.00;19.03;;;;;;;;;;5056332;28;20029;-58
2024/01/19 06:18:23;;;;;;;20.97;17.53;;;;;;;;;;5056551;28;20033;-59
2024/01/19 06:20:49;;;;;;;27.40;19.33;;;;;;;;;;5055974;28;20029;-59
2024/01/19 06:23:15;;;;;;;21.13;17.33;;;;;;;;;;5055882;28;20064;-59
2024/01/19 06:25:41;;;;;;;27.23;18.57;;;;;;;;;;5055841;28;20039;-58
2024/01/19 06:28:07;;;;;;;28.23;15.43;;;;;;;;;;5056266;28;20027;-58
2024/01/19 06:30:33;;;;;;;21.90;16.87;;;;;;;;;;5055960;28;20447;-58
2024/01/19 06:32:59;;;;;;;20.20;16.07;;;;;;;;;;5056630;28;20436;-59
2024/01/19 06:35:26;;;;;;;27.57;16.80;;;;;;;;;;5055807;28;20025;-58
2024/01/19 06:37:52;;;;;;;20.40;15.43;;;;;;;;;;5055357;28;20440;-59
2024/01/19 06:40:18;;;;;;;17.87;14.83;;;;;;;;;;5055678;28;20029;-59
2024/01/19 06:42:47;;;;;;;18.37;15.43;;;;;;;;;;5055608;28;20179;-59
2024/01/19 06:45:16;;;;;;;24.70;14.97;;;;;;;;;;5055648;28;20028;-58
2024/01/19 06:47:42;;;;;;;24.07;14.67;;;;;;;;;;5056383;28;20033;-58
2024/01/19 06:50:08;;;;;;;20.90;16.47;;;;;;;;;;5055953;28;20371;-59
2024/01/19 06:52:34;;;;;;;21.67;15.57;;;;;;;;;;5055524;28;20035;-57
2024/01/19 06:55:00;;;;;;;21.90;14.87;;;;;;;;;;5055413;28;20045;-57
2024/01/19 06:57:25;;;;;;;19.27;15.33;;;;;;;;;;5055564;28;20100;-58
2024/01/19 06:59:51;;;;;;;21.23;17.07;;;;;;;;;;5054775;28;20029;-57
2024/01/19 07:02:18;;;;;;;20.83;17.20;;;;;;;;;;5055030;28;20036;-58
2024/01/19 07:04:44;;;;;;;21.03;17.20;;;;;;;;;;5055089;28;20037;-59
2024/01/19 07:07:10;;;;;;;21.97;16.23;;;;;;;;;;5054809;28;20033;-58
2024/01/19 07:09:36;;;;;;;27.13;17.47;;;;;;;;;;5055225;28;20098;-58
2024/01/19 07:12:03;;;;;;;21.90;16.53;;;;;;;;;;5055679;28;20025;-58
2024/01/19 07:14:29;;;;;;;25.60;16.63;;;;;;;;;;5055138;28;20375;-59
2024/01/19 07:16:55;;;;;;;22.20;16.10;;;;;;;;;;5055022;28;20035;-58
2024/01/19 07:19:21;;;;;;;20.93;16.17;;;;;;;;;;5055517;28;20120;-59
2024/01/19 07:21:47;;;;;;;19.17;15.80;;;;;;;;;;5055074;28;20075;-59
2024/01/19 07:24:13;;;;;;;28.73;17.73;;;;;;;;;;5055166;28;20029;-59
2024/01/19 07:26:39;;;;;;;20.67;15.83;;;;;;;;;;5054983;28;20033;-58
2024/01/19 07:29:09;;;;;;;20.20;15.83;;;;;;;;;;5055144;28;20107;-58
2024/01/19 07:31:35;;;;;;;18.83;15.37;;;;;;;;;;5054709;28;20079;-57
2024/01/19 07:34:01;;;;;;;20.73;16.13;;;;;;;;;;5055295;28;20441;-58
2024/01/19 07:36:27;;;;;;;18.33;16.00;;;;;;;;;;5054910;28;20087;-59
2024/01/19 07:38:54;;;;;;;21.20;14.93;;;;;;;;;;5054650;28;20371;-58
2024/01/19 07:41:20;;;;;;;25.33;16.97;;;;;;;;;;5054820;28;20117;-59
2024/01/19 07:43:46;;;;;;;24.07;17.80;;;;;;;;;;5054166;28;20017;-59
2024/01/19 07:46:14;;;;;;;24.80;15.33;;;;;;;;;;5054897;28;20455;-59
2024/01/19 07:48:40;;;;;;;17.47;15.13;;;;;;;;;;5054574;28;20043;-59
2024/01/19 07:51:06;;;;;;;21.03;15.83;;;;;;;;;;5053586;28;20029;-58
2024/01/19 07:53:32;;;;;;;22.30;16.47;;;;;;;;;;5054663;28;20437;-59
2024/01/19 07:55:58;;;;;;;20.07;15.87;;;;;;;;;;5054682;28;20415;-59
2024/01/19 07:58:24;;;;;;;26.33;17.67;;;;;;;;;;5054432;28;20478;-58
2024/01/19 08:00:50;;;;;;;22.60;16.77;;;;;;;;;;5054064;28;20033;-58
2024/01/19 08:03:16;;;;;;;22.27;16.57;;;;;;;;;;5054620;28;20025;-59
2024/01/19 08:05:42;;;;;;;16.63;14.53;;;;;;;;;;5054459;28;20025;-58
2024/01/19 08:08:08;;;;;;;23.40;17.27;;;;;;;;;;5053947;28;20021;-58
2024/01/19 08:10:36;;;;;;;23.87;16.77;;;;;;;;;;5054282;28;20029;-58
2024/01/19 08:13:02;;;;;;;18.57;14.87;;;;;;;;;;5054098;28;20029;-58
2024/01/19 08:15:28;;;;;;;21.37;16.63;;;;;;;;;;5054036;28;20025;-58
2024/01/19 08:17:57;;;;;;;20.77;17.97;;;;;;;;;;5054781;28;20028;-61
2024/01/19 08:20:24;;;;;;;20.03;16.67;;;;;;;;;;5053400;28;20039;-59
2024/01/19 08:22:50;;;;;;;23.63;18.23;;;;;;;;;;5053689;28;20036;-59
2024/01/19 08:25:17;;;;;;;24.17;17.97;;;;;;;;;;5054303;28;20029;-57
2024/01/19 08:27:43;;;;;;;32.07;19.57;;;;;;;;;;5054193;28;20056;-57
2024/01/19 08:30:09;;;;;;;30.53;21.53;;;;;;;;;;5053738;28;20074;-58
2024/01/19 08:32:36;;;;;;;29.33;19.30;;;;;;;;;;5053234;28;20025;-58
2024/01/19 08:35:08;;;;;;;29.27;22.07;;;;;;;;;;5053674;28;20385;-58
2024/01/19 08:37:41;;;;;;;29.03;23.00;;;;;;;;;;5054230;28;20044;-58
2024/01/19 08:40:12;;;;;;;31.03;24.50;;;;;;;;;;5053411;28;20400;-59
2024/01/19 08:42:38;;;;;;;30.17;24.93;;;;;;;;;;5052490;28;20112;-58
2024/01/19 08:45:05;;;;;;;29.30;24.37;;;;;;;;;;5053507;28;20029;-58
2024/01/19 08:47:31;;;;;;;35.90;25.33;;;;;;;;;;5054490;28;20029;-59
2024/01/19 08:49:59;;;;;;;39.73;26.33;;;;;;;;;;5055074;28;20028;-58
2024/01/19 08:52:25;;;;;;;33.33;27.30;;;;;;;;;;5057780;28;20111;-59
2024/01/19 08:54:51;;;;;;;33.43;25.53;;;;;;;;;;5057349;28;20123;-58
2024/01/19 08:57:17;;;;;;;32.10;24.57;;;;;;;;;;5057697;28;20056;-58
2024/01/19 08:59:43;;;;;;;33.70;25.17;;;;;;;;;;5057571;28;20059;-58
2024/01/19 09:02:09;;;;;;;33.30;23.10;;;;;;;;;;5058056;28;20103;-58
2024/01/19 09:04:35;;;;;;;31.73;23.03;;;;;;;;;;5057585;28;20024;-59
2024/01/19 09:07:00;;;;;;;29.63;24.07;;;;;;;;;;5057489;28;20021;-58
2024/01/19 09:09:27;;;;;;;40.00;22.80;;;;;;;;;;5058113;28;20052;-58
2024/01/19 09:11:53;;;;;;;27.77;24.33;;;;;;;;;;5057388;28;20108;-58
2024/01/19 09:14:20;;;;;;;33.67;24.50;;;;;;;;;;5057854;28;20037;-59
2024/01/19 09:16:46;;;;;;;28.90;23.43;;;;;;;;;;5057166;28;20033;-58
2024/01/19 09:19:12;;;;;;;28.77;21.63;;;;;;;;;;5057027;28;20094;-57
2024/01/19 09:21:44;;;;;;;30.70;21.53;;;;;;;;;;5057074;28;20056;-57
2024/01/19 09:24:11;;;;;;;35.70;22.67;;;;;;;;;;5057825;28;20417;-57
2024/01/19 09:26:37;;;;;;;33.47;22.53;;;;;;;;;;5056165;28;20374;-57
2024/01/19 09:29:04;;;;;;;31.47;23.43;;;;;;;;;;5057373;28;20123;-57
2024/01/19 09:31:30;;;;;;;31.37;25.90;;;;;;;;;;5057330;28;20060;-57
2024/01/19 09:33:56;;;;;;;41.47;27.93;;;;;;;;;;5057065;28;20408;-57
2024/01/19 09:36:22;;;;;;;34.90;26.03;;;;;;;;;;5057359;28;20451;-55
2024/01/19 09:38:48;;;;;;;36.43;26.73;;;;;;;;;;5056850;28;20033;-57
2024/01/19 09:41:23;;;;;;;27.53;24.53;;;;;;;;;;5056954;28;20423;-59
2024/01/19 09:43:49;;;;;;;34.10;25.07;;;;;;;;;;5056615;28;20032;-57
2024/01/19 09:46:20;;;;;;;38.73;25.50;;;;;;;;;;5056933;28;20025;-57
2024/01/19 09:48:59;;;;;;;32.27;25.90;;;;;;;;;;5057161;28;20090;-57
2024/01/19 09:51:31;;;;;;;35.07;26.70;;;;;;;;;;5056355;28;20386;-57
2024/01/19 09:54:00;;;;;;;35.13;24.20;;;;;;;;;;5056791;28;20025;-55
2024/01/19 09:56:25;;;;;;;28.40;18.60;;;;;;;;;;5056632;28;20494;-57
2024/01/19 09:58:54;;;;;;;26.17;20.57;;;;;;;;;;5057133;28;20092;-57
2024/01/19 10:01:21;;;;;;;29.10;23.13;;;;;;;;;;5056313;28;20382;-57
2024/01/19 10:03:48;;;;;;;24.40;20.97;;;;;;;;;;5056409;28;20029;-57
2024/01/19 10:06:14;;;;;;;28.90;19.40;;;;;;;;;;5056681;28;20466;-57
2024/01/19 10:08:40;;;;;;;25.07;17.83;;;;;;;;;;5057023;28;20078;-57
2024/01/19 10:11:08;;;;;;;22.27;16.07;;;;;;;;;;5056227;28;20091;-56
2024/01/19 10:13:34;;;;;;;23.70;18.27;;;;;;;;;;5056225;28;20060;-55
2024/01/19 10:16:00;;;;;;;23.50;17.13;;;;;;;;;;5056255;28;20021;-55
2024/01/19 10:18:26;;;;;;;24.67;18.93;;;;;;;;;;5056753;28;20032;-55
2024/01/19 10:20:52;;;;;;;23.33;16.63;;;;;;;;;;5056765;28;20384;-56
2024/01/19 10:23:19;;;;;;;20.90;15.27;;;;;;;;;;5056935;28;20036;-56
2024/01/19 10:25:45;;;;;;;20.60;16.13;;;;;;;;;;5056170;28;20025;-56
2024/01/19 10:28:28;;;;;;;23.70;18.37;;;;;;;;;;5056040;28;20025;-56
2024/01/19 10:30:54;;;;;;;22.70;17.80;;;;;;;;;;5056026;28;20025;-56
2024/01/19 10:33:20;;;;;;;22.77;18.07;;;;;;;;;;5056153;28;20025;-55
2024/01/19 10:35:46;;;;;;;25.53;18.00;;;;;;;;;;5055867;28;20029;-57
2024/01/19 10:38:12;;;;;;;26.67;18.07;;;;;;;;;;5056568;28;20119;-57
2024/01/19 10:40:38;;;;;;;21.00;17.20;;;;;;;;;;5055515;28;20032;-57
2024/01/19 10:43:04;;;;;;;22.13;17.60;;;;;;;;;;5055729;28;20029;-57
2024/01/19 10:45:34;;;;;;;22.70;16.93;;;;;;;;;;5056130;28;20447;-56
2024/01/19 10:48:03;;;;;;;25.30;18.83;;;;;;;;;;5056078;28;20021;-56
2024/01/19 10:50:30;;;;;;;21.73;16.43;;;;;;;;;;5055535;28;20475;-57
2024/01/19 10:52:58;;;;;;;24.90;17.63;;;;;;;;;;5055660;28;20029;-56
2024/01/19 10:55:25;;;;;;;18.07;16.07;;;;;;;;;;5055984;28;20049;-55
2024/01/19 10:58:11;;;;;;;22.73;17.70;;;;;;;;;;5055657;28;20033;-57
2024/01/19 11:00:38;;;;;;;24.13;15.43;;;;;;;;;;5055909;28;20033;-56
2024/01/19 11:03:04;;;;;;;23.50;16.47;;;;;;;;;;5055254;28;20053;-57
2024/01/19 11:05:30;;;;;;;18.63;15.50;;;;;;;;;;5055314;28;20021;-56
2024/01/19 11:07:57;;;;;;;20.83;14.07;;;;;;;;;;5055677;28;20026;-57
2024/01/19 11:10:25;;;;;;;25.97;16.53;;;;;;;;;;5054947;28;20029;-56
2024/01/19 11:13:01;;;;;;;21.93;15.53;;;;;;;;;;5054860;28;20032;-56
2024/01/19 11:15:35;;;;;;;18.57;14.20;;;;;;;;;;5055185;28;20029;-57
2024/01/19 11:18:02;;;;;;;22.63;15.13;;;;;;;;;;5055578;28;20032;-57
2024/01/19 11:20:29;;;;;;;23.10;14.80;;;;;;;;;;5055570;28;20444;-57
2024/01/19 11:22:55;;;;;;;18.17;13.43;;;;;;;;;;5054990;28;20079;-57
2024/01/19 11:25:26;;;;;;;14.43;11.53;;;;;;;;;;5054986;28;20029;-56
2024/01/19 11:27:56;;;;;;;15.53;12.37;;;;;;;;;;5055517;28;20053;-57
2024/01/19 11:30:36;;;;;;;17.27;13.25;;;;;;;;;;5054948;28;20091;-56
2024/01/19 11:33:15;;;;;;;15.30;12.87;;;;;;;;;;5055126;28;20375;-56
2024/01/19 11:35:41;;;;;;;17.97;12.20;;;;;;;;;;5055392;28;20021;-57
2024/01/19 11:38:07;;;;;;;16.73;12.87;;;;;;;;;;5055286;28;20421;-56
2024/01/19 11:40:35;;;;;;;16.00;13.73;;;;;;;;;;5054541;28;20028;-57
2024/01/19 11:43:03;;;;;;;17.87;13.10;;;;;;;;;;5054627;28;20025;-59
2024/01/19 11:45:29;;;;;;;14.30;10.63;;;;;;;;;;5054567;28;20025;-58
2024/01/19 11:47:55;;;;;;;16.40;11.63;;;;;;;;;;5055277;28;20040;-57
2024/01/19 11:50:47;;;;;;;14.37;10.77;;;;;;;;;;5054463;28;20028;-57
2024/01/19 11:53:14;;;;;;;12.63;9.07;;;;;;;;;;5053122;28;20076;-56
2024/01/19 11:55:45;;;;;;;16.90;9.70;;;;;;;;;;5054546;28;20045;-57
2024/01/19 11:58:27;;;;;;;16.50;10.70;;;;;;;;;;5054682;28;20091;-56
2024/01/19 12:01:03;;;;;;;10.50;9.37;;;;;;;;;;5054190;28;20037;-57
2024/01/19 12:03:30;;;;;;;9.57;8.67;;;;;;;;;;5054761;28;20098;-57
2024/01/19 12:05:58;;;;;;;10.10;8.00;;;;;;;;;;5054161;28;20083;-55
2024/01/19 12:08:24;;;;;;;10.97;7.47;;;;;;;;;;5054695;28;20021;-56
2024/01/19 12:11:00;;;;;;;7.37;6.53;;;;;;;;;;5053978;28;20024;-57
2024/01/19 12:13:26;;;;;;;10.47;8.53;;;;;;;;;;5054630;28;20028;-57
2024/01/19 12:15:52;;;;;;;11.03;7.07;;;;;;;;;;5054550;28;20443;-57
2024/01/19 12:18:18;;;;;;;8.63;7.03;;;;;;;;;;5054710;28;20409;-56
2024/01/19 12:20:45;;;;;;;12.00;6.43;;;;;;;;;;5054396;28;20025;-57
2024/01/19 12:23:14;;;;;;;6.80;6.10;;;;;;;;;;5054693;28;20033;-56
2024/01/19 12:25:40;;;;;;;7.43;5.87;;;;;;;;;;5053793;28;20032;-57
2024/01/19 12:28:06;;;;;;;10.10;6.77;;;;;;;;;;5054600;28;20021;-56
2024/01/19 12:30:33;;;;;;;13.40;7.67;;;;;;;;;;5054514;28;20506;-57
2024/01/19 12:33:13;;;;;;;13.32;6.70;;;;;;;;;;5054240;28;20029;-57
2024/01/19 12:35:40;;;;;;;8.82;7.40;;;;;;;;;;5054121;28;20112;-54
2024/01/19 12:38:06;;;;;;;7.23;6.53;;;;;;;;;;5053756;28;20021;-55
2024/01/19 12:40:34;;;;;;;9.60;7.33;;;;;;;;;;5053657;28;20039;-51
2024/01/19 12:43:03;;;;;;;8.87;6.70;;;;;;;;;;5053503;28;20031;-52
2024/01/19 12:45:29;;;;;;;8.03;6.77;;;;;;;;;;5053716;28;20025;-54
2024/01/19 12:47:55;;;;;;;9.50;7.00;;;;;;;;;;5054107;28;20017;-55
2024/01/19 12:50:24;;;;;;;7.70;6.17;;;;;;;;;;5054124;28;20032;-52
2024/01/19 12:52:51;;;;;;;7.03;5.97;;;;;;;;;;5053570;28;20053;-54
2024/01/19 12:55:25;;;;;;;6.80;5.33;;;;;;;;;;5054002;28;20069;-51
2024/01/19 12:57:51;;;;;;;8.53;5.90;;;;;;;;;;5053972;28;20347;-54
2024/01/19 13:00:18;;;;;;;9.00;5.67;;;;;;;;;;5053590;28;20025;-54
2024/01/19 13:02:45;;;;;;;5.50;4.63;;;;;;;;;;5054283;28;20068;-54
2024/01/19 13:05:23;;;;;;;6.20;5.10;;;;;;;;;;5053953;28;20075;-54
2024/01/19 13:07:53;;;;;;;6.10;4.40;;;;;;;;;;5053759;28;20104;-56
2024/01/19 13:10:20;;;;;;;5.57;3.97;;;;;;;;;;5053484;28;20028;-52
2024/01/19 13:12:46;;;;;;;6.77;4.43;;;;;;;;;;5053965;28;20036;-55
2024/01/19 13:15:13;;;;;;;6.73;4.90;;;;;;;;;;5051864;28;20029;-54
2024/01/19 13:17:39;;;;;;;7.63;5.67;;;;;;;;;;5053377;28;20116;-54
2024/01/19 13:20:11;;;;;;;8.17;5.13;;;;;;;;;;5053295;28;20534;-56
2024/01/19 13:22:37;;;;;;;6.77;5.40;;;;;;;;;;5052968;28;20028;-53
2024/01/19 13:25:04;;;;;;;5.70;4.50;;;;;;;;;;5053165;28;20025;-54
2024/01/19 13:27:30;;;;;;;11.53;6.80;;;;;;;;;;5053535;28;20020;-53
2024/01/19 13:29:56;;;;;;;10.77;7.43;;;;;;;;;;5053479;28;20029;-54
2024/01/19 13:32:23;;;;;;;12.07;9.50;;;;;;;;;;5053258;28;20071;-52
2024/01/19 13:34:49;;;;;;;11.07;8.63;;;;;;;;;;5053163;28;20025;-55
2024/01/19 13:37:15;;;;;;;9.10;8.20;;;;;;;;;;5055866;28;20031;-54
2024/01/19 13:39:41;;;;;;;10.20;8.70;;;;;;;;;;5057368;28;20029;-52
2024/01/19 13:42:07;;;;;;;10.57;8.20;;;;;;;;;;5056957;28;20434;-55
2024/01/19 13:44:33;;;;;;;15.70;9.47;;;;;;;;;;5057444;28;20528;-55
2024/01/19 13:46:59;;;;;;;9.53;8.23;;;;;;;;;;5056441;28;20053;-56
2024/01/19 13:49:25;;;;;;;9.27;7.00;;;;;;;;;;5057159;28;20029;-58
2024/01/19 13:51:51;;;;;;;9.10;6.07;;;;;;;;;;5057235;28;20407;-55
2024/01/19 13:54:16;;;;;;;10.67;8.27;;;;;;;;;;5056080;28;20017;-52
2024/01/19 13:56:43;;;;;;;11.80;8.50;;;;;;;;;;5056591;28;20040;-55
2024/01/19 13:59:09;;;;;;;13.00;8.80;;;;;;;;;;5056838;28;20094;-55
2024/01/19 14:01:35;;;;;;;12.47;8.50;;;;;;;;;;5055824;28;20063;-51
2024/01/19 14:04:01;;;;;;;16.10;11.10;;;;;;;;;;5056800;28;20067;-52
2024/01/19 14:06:27;;;;;;;15.40;11.90;;;;;;;;;;5056093;28;20522;-55
2024/01/19 14:08:53;;;;;;;13.60;11.13;;;;;;;;;;5056814;28;20032;-52
2024/01/19 14:11:19;;;;;;;17.23;11.40;;;;;;;;;;5055867;28;20025;-55
2024/01/19 14:13:45;;;;;;;14.10;10.83;;;;;;;;;;5056258;28;20103;-53
2024/01/19 14:16:11;;;;;;;12.83;10.37;;;;;;;;;;5056162;28;20155;-54
2024/01/19 14:18:37;;;;;;;14.77;9.97;;;;;;;;;;5056663;28;20021;-54